createdAt,value
2023-10-06T00:00:33.251Z,100.00
2023-10-06T00:03:00.367Z,100.00
2023-10-06T00:05:30.226Z,100.00
2023-10-06T00:07:58.800Z,100.00
2023-10-06T00:10:28.552Z,100.00
2023-10-06T00:13:00.139Z,100.00
2023-10-06T00:15:41.043Z,100.00
2023-10-06T00:18:09.190Z,100.00
2023-10-06T00:20:40.457Z,100.00
2023-10-06T00:23:13.774Z,100.00
2023-10-06T00:25:43.722Z,100.00
2023-10-06T00:28:21.028Z,100.00
2023-10-06T00:30:49.292Z,100.00
2023-10-06T00:33:18.979Z,100.00
2023-10-06T00:35:49.329Z,100.00
2023-10-06T00:38:19.947Z,100.00
2023-10-06T00:40:55.846Z,100.00
2023-10-06T00:43:40.740Z,100.00
2023-10-06T00:46:08.583Z,100.00
2023-10-06T00:48:45.947Z,100.00
2023-10-06T00:51:21.148Z,100.00
2023-10-06T00:53:54.151Z,100.00
2023-10-06T00:56:25.004Z,100.00
2023-10-06T00:58:53.358Z,100.00
2023-10-06T01:01:21.031Z,100.00
2023-10-06T01:04:12.516Z,100.00
2023-10-06T01:06:42.347Z,100.00
2023-10-06T01:09:18.070Z,100.00
2023-10-06T01:11:44.929Z,100.00
2023-10-06T01:14:12.211Z,100.00
2023-10-06T01:16:39.945Z,100.00
2023-10-06T01:19:18.232Z,100.00
2023-10-06T01:21:48.068Z,100.00
2023-10-06T01:24:25.680Z,100.00
2023-10-06T01:26:55.479Z,100.00
2023-10-06T01:29:30.609Z,100.00
2023-10-06T01:31:58.879Z,100.00
2023-10-06T01:34:28.510Z,100.00
2023-10-06T01:36:57.450Z,100.00
2023-10-06T01:39:27.372Z,100.00
2023-10-06T01:41:54.131Z,100.00
2023-10-06T01:44:20.820Z,100.00
2023-10-06T01:46:54.663Z,100.00
2023-10-06T01:49:25.256Z,100.00
2023-10-06T01:52:06.737Z,100.00
2023-10-06T01:54:37.769Z,100.00
2023-10-06T01:57:05.581Z,100.00
2023-10-06T01:59:32.390Z,100.00
2023-10-06T02:02:02.969Z,100.00
2023-10-06T02:04:39.833Z,100.00
2023-10-06T02:07:10.561Z,100.00
2023-10-06T02:09:38.713Z,100.00
2023-10-06T02:12:07.313Z,100.00
2023-10-06T02:14:35.049Z,100.00
2023-10-06T02:17:07.144Z,100.00
2023-10-06T02:19:35.750Z,100.00
2023-10-06T02:22:07.350Z,100.00
2023-10-06T02:24:34.648Z,100.00
2023-10-06T02:27:02.911Z,100.00
2023-10-06T02:29:30.974Z,100.00
2023-10-06T02:32:03.153Z,100.00
2023-10-06T02:34:36.589Z,100.00
2023-10-06T02:37:05.693Z,100.00
2023-10-06T02:39:35.328Z,100.00
2023-10-06T02:42:10.617Z,100.00
2023-10-06T02:44:42.448Z,100.00
2023-10-06T02:47:11.596Z,100.00
2023-10-06T02:49:41.673Z,100.00
2023-10-06T02:52:22.159Z,100.00
2023-10-06T02:55:06.693Z,100.00
2023-10-06T02:57:38.181Z,100.00
2023-10-06T03:00:22.425Z,100.00
2023-10-06T03:02:57.445Z,100.00
2023-10-06T03:05:48.704Z,100.00
2023-10-06T03:08:21.835Z,100.00
2023-10-06T03:10:50.189Z,100.00
2023-10-06T03:13:33.931Z,100.00
2023-10-06T03:16:11.289Z,100.00
2023-10-06T03:18:40.723Z,100.00
2023-10-06T03:21:12.638Z,100.00
2023-10-06T03:23:48.830Z,100.00
2023-10-06T03:26:26.984Z,100.00
2023-10-06T03:28:54.733Z,100.00
2023-10-06T03:31:25.056Z,100.00
2023-10-06T03:33:56.852Z,100.00
2023-10-06T03:36:46.867Z,100.00
2023-10-06T03:39:23.418Z,100.00
2023-10-06T03:41:56.285Z,100.00
2023-10-06T03:44:28.010Z,100.00
2023-10-06T03:46:56.685Z,100.00
2023-10-06T03:49:27.190Z,100.00
2023-10-06T03:51:57.191Z,100.00
2023-10-06T03:54:24.885Z,100.00
2023-10-06T03:56:51.611Z,100.00
2023-10-06T03:59:22.496Z,100.00
2023-10-06T04:01:49.546Z,100.00
2023-10-06T04:04:16.992Z,100.00
2023-10-06T04:06:45.395Z,100.00
2023-10-06T04:09:20.077Z,100.00
2023-10-06T04:11:48.658Z,100.00
2023-10-06T04:14:15.590Z,100.00
2023-10-06T04:16:47.221Z,100.00
2023-10-06T04:19:18.092Z,100.00
2023-10-06T04:21:44.793Z,100.00
2023-10-06T04:24:11.739Z,100.00
2023-10-06T04:26:40.884Z,100.00
2023-10-06T04:29:10.529Z,100.00
2023-10-06T04:31:38.734Z,100.00
2023-10-06T04:34:06.642Z,100.00
2023-10-06T04:36:34.743Z,100.00
2023-10-06T04:39:02.509Z,100.00
2023-10-06T04:41:31.248Z,100.00
2023-10-06T04:44:03.316Z,100.00
2023-10-06T04:46:31.157Z,100.00
2023-10-06T04:48:58.867Z,100.00
2023-10-06T04:51:28.427Z,100.00
2023-10-06T04:53:56.249Z,100.00
2023-10-06T04:56:23.636Z,100.00
2023-10-06T04:58:51.540Z,100.00
2023-10-06T05:01:18.358Z,100.00
2023-10-06T05:03:46.085Z,100.00
2023-10-06T05:06:18.019Z,100.00
2023-10-06T05:08:51.048Z,100.00
2023-10-06T05:11:18.983Z,100.00
2023-10-06T05:13:50.810Z,100.00
2023-10-06T05:16:20.824Z,100.00
2023-10-06T05:18:48.922Z,100.00
2023-10-06T05:21:16.691Z,100.00
2023-10-06T05:23:46.314Z,100.00
2023-10-06T05:26:14.955Z,100.00
2023-10-06T05:28:43.591Z,100.00
2023-10-06T05:31:10.337Z,100.00
2023-10-06T05:33:37.265Z,100.00
2023-10-06T05:36:16.479Z,100.00
2023-10-06T05:38:46.989Z,100.00
2023-10-06T05:41:16.439Z,100.00
2023-10-06T05:43:44.711Z,100.00
2023-10-06T05:46:12.829Z,100.00
2023-10-06T05:48:41.495Z,100.00
2023-10-06T05:51:11.680Z,100.00
2023-10-06T05:53:44.866Z,100.00
2023-10-06T05:56:13.600Z,100.00
2023-10-06T05:58:42.417Z,100.00
2023-10-06T06:01:20.187Z,100.00
2023-10-06T06:03:48.935Z,100.00
2023-10-06T06:06:18.016Z,100.00
2023-10-06T06:08:48.500Z,100.00
2023-10-06T06:11:17.459Z,100.00
2023-10-06T06:13:52.790Z,100.00
2023-10-06T06:16:23.838Z,100.00
2023-10-06T06:18:51.859Z,100.00
2023-10-06T06:21:18.583Z,100.00
2023-10-06T06:23:47.952Z,100.00
2023-10-06T06:26:18.289Z,100.00
2023-10-06T06:28:46.429Z,100.00
2023-10-06T06:31:19.764Z,100.00
2023-10-06T06:33:57.513Z,100.00
2023-10-06T06:36:25.324Z,100.00
2023-10-06T06:38:52.804Z,100.00
2023-10-06T06:41:20.767Z,100.00
2023-10-06T06:43:48.561Z,100.00
2023-10-06T06:46:18.349Z,100.00
2023-10-06T06:48:45.869Z,100.00
2023-10-06T06:51:13.946Z,100.00
2023-10-06T06:53:42.599Z,100.00
2023-10-06T06:56:11.995Z,100.00
2023-10-06T06:58:39.216Z,100.00
2023-10-06T07:01:15.671Z,100.00
2023-10-06T07:03:42.793Z,100.00
2023-10-06T07:06:17.522Z,100.00
2023-10-06T07:08:50.839Z,100.00
2023-10-06T07:11:18.608Z,100.00
2023-10-06T07:13:47.250Z,100.00
2023-10-06T07:16:15.841Z,100.00
2023-10-06T07:18:43.027Z,100.00
2023-10-06T07:21:11.192Z,100.00
2023-10-06T07:23:39.024Z,100.00
2023-10-06T07:26:14.547Z,100.00
2023-10-06T07:28:42.456Z,100.00
2023-10-06T07:31:14.381Z,100.00
2023-10-06T07:33:42.471Z,100.00
2023-10-06T07:36:18.680Z,100.00
2023-10-06T07:38:45.959Z,100.00
2023-10-06T07:41:20.262Z,100.00
2023-10-06T07:43:49.602Z,100.00
2023-10-06T07:46:17.989Z,100.00
2023-10-06T07:48:47.176Z,95.49
2023-10-06T07:51:14.638Z,85.97
2023-10-06T07:53:42.557Z,77.33
2023-10-06T07:56:12.813Z,69.04
2023-10-06T07:58:44.740Z,63.83
2023-10-06T08:01:15.346Z,60.59
2023-10-06T08:03:42.841Z,58.24
2023-10-06T08:06:11.946Z,57.16
2023-10-06T08:08:39.578Z,57.54
2023-10-06T08:11:07.370Z,58.01
2023-10-06T08:13:35.017Z,58.66
2023-10-06T08:16:02.271Z,55.96
2023-10-06T08:18:31.438Z,54.89
2023-10-06T08:21:00.333Z,52.82
2023-10-06T08:23:27.461Z,53.24
2023-10-06T08:26:00.940Z,51.93
2023-10-06T08:28:28.407Z,52.38
2023-10-06T08:30:55.249Z,54.32
2023-10-06T08:33:27.029Z,54.67
2023-10-06T08:36:02.189Z,53.33
2023-10-06T08:38:29.883Z,52.84
2023-10-06T08:41:01.725Z,51.50
2023-10-06T08:43:28.709Z,51.49
2023-10-06T08:45:57.147Z,52.53
2023-10-06T08:48:26.574Z,50.81
2023-10-06T08:50:56.313Z,52.31
2023-10-06T08:53:24.823Z,56.46
2023-10-06T08:55:51.692Z,57.79
2023-10-06T08:58:18.988Z,59.35
2023-10-06T09:00:46.012Z,56.13
2023-10-06T09:03:15.914Z,52.52
2023-10-06T09:05:43.750Z,55.59
2023-10-06T09:08:16.185Z,58.18
2023-10-06T09:10:50.449Z,60.85
2023-10-06T09:13:19.505Z,67.25
2023-10-06T09:15:58.496Z,78.00
2023-10-06T09:18:31.045Z,86.74
2023-10-06T09:21:10.978Z,91.97
2023-10-06T09:23:41.002Z,92.13
2023-10-06T09:26:10.070Z,95.24
2023-10-06T09:28:49.769Z,98.68
2023-10-06T09:31:16.420Z,94.08
2023-10-06T09:33:45.451Z,90.29
2023-10-06T09:36:32.064Z,89.59
2023-10-06T09:39:07.249Z,85.98
2023-10-06T09:41:35.618Z,79.99
2023-10-06T09:44:08.659Z,75.19
2023-10-06T09:46:36.517Z,68.55
2023-10-06T09:49:08.634Z,65.60
2023-10-06T09:51:39.253Z,68.91
2023-10-06T09:54:10.857Z,72.75
2023-10-06T09:56:43.124Z,72.33
2023-10-06T09:59:14.791Z,72.53
2023-10-06T10:01:47.765Z,72.49
2023-10-06T10:04:15.815Z,71.22
2023-10-06T10:06:46.543Z,68.92
2023-10-06T10:09:22.208Z,67.52
2023-10-06T10:12:10.198Z,67.26
2023-10-06T10:15:17.041Z,67.05
2023-10-06T10:18:31.838Z,66.39
2023-10-06T10:21:01.204Z,61.33
2023-10-06T10:23:32.209Z,61.24
2023-10-06T10:26:17.338Z,58.40
2023-10-06T10:28:46.840Z,57.39
2023-10-06T10:31:18.675Z,57.01
2023-10-06T10:33:48.107Z,54.63
2023-10-06T10:36:19.180Z,56.35
2023-10-06T10:38:56.942Z,59.42
2023-10-06T10:41:27.392Z,61.85
2023-10-06T10:44:06.741Z,62.47
2023-10-06T10:46:54.376Z,64.63
2023-10-06T10:49:24.008Z,66.36
2023-10-06T10:51:55.139Z,68.67
2023-10-06T10:54:23.991Z,70.64
2023-10-06T10:56:54.283Z,68.61
2023-10-06T10:59:22.910Z,64.82
2023-10-06T11:01:54.394Z,62.98
2023-10-06T11:04:32.217Z,61.70
2023-10-06T11:07:11.095Z,63.62
2023-10-06T11:09:48.133Z,63.70
2023-10-06T11:12:24.177Z,63.15
2023-10-06T11:15:04.254Z,64.58
2023-10-06T11:17:33.137Z,68.54
2023-10-06T11:20:14.489Z,73.84
2023-10-06T11:22:52.198Z,82.37
2023-10-06T11:25:19.761Z,81.47
2023-10-06T11:27:56.801Z,82.45
2023-10-06T11:30:24.601Z,84.27
2023-10-06T11:32:58.111Z,81.89
2023-10-06T11:35:25.761Z,81.50
2023-10-06T11:37:54.015Z,84.39
2023-10-06T11:40:25.203Z,86.54
2023-10-06T11:42:54.377Z,85.18
2023-10-06T11:45:25.458Z,76.50
2023-10-06T11:47:54.382Z,74.69
2023-10-06T11:50:22.980Z,74.48
2023-10-06T11:52:50.876Z,74.13
2023-10-06T11:55:27.911Z,73.48
2023-10-06T11:57:55.364Z,74.88
2023-10-06T12:00:41.657Z,76.96
2023-10-06T12:03:12.608Z,71.95
2023-10-06T12:05:42.830Z,67.63
2023-10-06T12:08:15.167Z,72.38
2023-10-06T12:10:52.349Z,69.55
2023-10-06T12:13:19.922Z,66.83
2023-10-06T12:15:47.665Z,63.25
2023-10-06T12:18:16.375Z,63.76
2023-10-06T12:20:43.214Z,63.64
2023-10-06T12:23:09.961Z,61.21
2023-10-06T12:25:37.700Z,60.99
2023-10-06T12:28:04.988Z,61.07
2023-10-06T12:30:31.638Z,59.66
2023-10-06T12:33:01.903Z,59.62
2023-10-06T12:35:31.377Z,58.63
2023-10-06T12:37:58.254Z,57.31
2023-10-06T12:40:25.244Z,56.41
2023-10-06T12:42:51.959Z,57.94
2023-10-06T12:45:18.974Z,57.91
2023-10-06T12:47:47.527Z,58.56
2023-10-06T12:50:20.287Z,59.80
2023-10-06T12:52:53.231Z,61.64
2023-10-06T12:55:25.973Z,62.29
2023-10-06T12:57:55.035Z,65.52
2023-10-06T13:00:22.100Z,69.40
2023-10-06T13:02:50.218Z,67.47
2023-10-06T13:05:18.494Z,66.01
2023-10-06T13:07:47.665Z,70.65
2023-10-06T13:10:16.923Z,70.11
2023-10-06T13:12:44.796Z,70.81
2023-10-06T13:15:15.503Z,71.87
2023-10-06T13:17:42.783Z,72.37
2023-10-06T13:20:13.938Z,71.45
2023-10-06T13:22:42.630Z,71.79
2023-10-06T13:25:11.847Z,65.76
2023-10-06T13:27:41.665Z,63.68
2023-10-06T13:30:14.889Z,62.58
2023-10-06T13:32:49.186Z,60.86
2023-10-06T13:35:20.671Z,58.76
2023-10-06T13:37:49.669Z,59.62
2023-10-06T13:40:17.885Z,55.74
2023-10-06T13:42:48.962Z,56.28
2023-10-06T13:45:24.673Z,57.59
2023-10-06T13:47:55.967Z,56.34
2023-10-06T13:50:25.163Z,57.03
2023-10-06T13:52:53.291Z,56.11
2023-10-06T13:55:21.721Z,54.63
2023-10-06T13:57:52.962Z,55.67
2023-10-06T14:00:30.974Z,55.94
2023-10-06T14:03:00.627Z,55.02
2023-10-06T14:05:32.240Z,55.36
2023-10-06T14:08:06.420Z,55.96
2023-10-06T14:10:36.987Z,55.68
2023-10-06T14:13:18.439Z,56.37
2023-10-06T14:15:46.909Z,55.02
2023-10-06T14:18:15.482Z,56.56
2023-10-06T14:20:46.408Z,56.76
2023-10-06T14:23:14.455Z,57.75
2023-10-06T14:25:42.322Z,56.28
2023-10-06T14:28:12.950Z,57.10
2023-10-06T14:30:43.999Z,57.52
2023-10-06T14:33:12.193Z,56.29
2023-10-06T14:36:00.956Z,55.56
2023-10-06T14:38:44.765Z,56.24
2023-10-06T14:41:32.395Z,57.24
2023-10-06T14:44:19.042Z,57.24
2023-10-06T14:47:06.508Z,58.58
2023-10-06T14:49:34.178Z,59.09
2023-10-06T14:52:02.558Z,59.45
2023-10-06T14:54:34.370Z,61.26
2023-10-06T14:57:04.571Z,64.28
2023-10-06T14:59:32.921Z,65.89
2023-10-06T15:02:11.872Z,67.40
2023-10-06T15:04:40.421Z,71.79
2023-10-06T15:07:10.088Z,72.50
2023-10-06T15:09:39.285Z,74.34
2023-10-06T15:12:06.959Z,79.57
2023-10-06T15:14:37.138Z,79.32
2023-10-06T15:17:05.811Z,84.67
2023-10-06T15:19:36.712Z,88.99
2023-10-06T15:22:03.838Z,93.74
2023-10-06T15:24:30.799Z,93.71
2023-10-06T15:26:58.048Z,94.56
2023-10-06T15:29:26.292Z,96.76
2023-10-06T15:31:53.263Z,96.95
2023-10-06T15:34:20.548Z,98.29
2023-10-06T15:36:48.167Z,99.76
2023-10-06T15:39:19.044Z,98.41
2023-10-06T15:41:47.125Z,100.00
2023-10-06T15:44:16.053Z,100.00
2023-10-06T15:46:43.916Z,100.00
2023-10-06T15:49:16.369Z,100.00
2023-10-06T15:51:46.823Z,100.00
2023-10-06T15:54:13.709Z,100.00
2023-10-06T15:56:40.950Z,100.00
2023-10-06T15:59:14.264Z,100.00
2023-10-06T16:01:46.295Z,100.00
2023-10-06T16:04:15.144Z,100.00
2023-10-06T16:06:45.198Z,100.00
2023-10-06T16:09:17.003Z,100.00
2023-10-06T16:11:44.452Z,100.00
2023-10-06T16:14:11.569Z,100.00
2023-10-06T16:16:39.408Z,100.00
2023-10-06T16:19:06.950Z,100.00
2023-10-06T16:21:34.372Z,100.00
2023-10-06T16:24:02.723Z,100.00
2023-10-06T16:26:31.395Z,100.00
2023-10-06T16:28:59.511Z,100.00
2023-10-06T16:31:27.341Z,100.00
2023-10-06T16:33:55.205Z,100.00
2023-10-06T16:36:23.730Z,100.00
2023-10-06T16:38:52.034Z,100.00
2023-10-06T16:41:24.718Z,100.00
2023-10-06T16:43:56.853Z,100.00
2023-10-06T16:46:24.204Z,100.00
2023-10-06T16:48:51.092Z,100.00
2023-10-06T16:51:21.545Z,100.00
2023-10-06T16:53:49.749Z,100.00
2023-10-06T16:56:17.396Z,100.00
2023-10-06T16:58:44.137Z,100.00
2023-10-06T17:01:10.953Z,100.00
2023-10-06T17:03:38.120Z,100.00
2023-10-06T17:06:07.479Z,100.00
2023-10-06T17:08:34.612Z,100.00
2023-10-06T17:11:12.709Z,100.00
2023-10-06T17:13:39.330Z,100.00
2023-10-06T17:16:10.578Z,100.00
2023-10-06T17:18:37.600Z,100.00
2023-10-06T17:21:08.015Z,100.00
2023-10-06T17:23:35.155Z,100.00
2023-10-06T17:26:03.310Z,100.00
2023-10-06T17:28:31.361Z,100.00
2023-10-06T17:31:02.759Z,100.00
2023-10-06T17:33:30.143Z,100.00
2023-10-06T17:35:58.004Z,100.00
2023-10-06T17:38:24.863Z,100.00
2023-10-06T17:40:51.487Z,100.00
2023-10-06T17:43:18.413Z,100.00
2023-10-06T17:45:45.675Z,100.00
2023-10-06T17:48:15.156Z,100.00
2023-10-06T17:50:50.125Z,100.00
2023-10-06T17:53:18.467Z,100.00
2023-10-06T17:55:53.455Z,100.00
2023-10-06T17:58:21.238Z,100.00
2023-10-06T18:00:48.637Z,100.00
2023-10-06T18:03:18.300Z,100.00
2023-10-06T18:05:46.285Z,100.00
2023-10-06T18:08:13.028Z,100.00
2023-10-06T18:10:41.513Z,100.00
2023-10-06T18:13:08.779Z,100.00
2023-10-06T18:15:35.533Z,100.00
2023-10-06T18:18:02.292Z,100.00
2023-10-06T18:20:29.681Z,100.00
2023-10-06T18:22:57.255Z,100.00
2023-10-06T18:25:24.625Z,100.00
2023-10-06T18:27:51.375Z,100.00
2023-10-06T18:30:19.259Z,100.00
2023-10-06T18:32:46.672Z,100.00
2023-10-06T18:35:13.462Z,100.00
2023-10-06T18:37:40.656Z,100.00
2023-10-06T18:40:07.907Z,100.00
2023-10-06T18:42:34.604Z,100.00
2023-10-06T18:45:01.245Z,100.00
2023-10-06T18:47:31.480Z,100.00
2023-10-06T18:49:58.826Z,100.00
2023-10-06T18:52:25.706Z,100.00
2023-10-06T18:54:52.425Z,100.00
2023-10-06T18:57:20.267Z,100.00
2023-10-06T18:59:46.918Z,100.00
2023-10-06T19:02:14.196Z,100.00
2023-10-06T19:04:41.064Z,100.00
2023-10-06T19:07:08.420Z,100.00
2023-10-06T19:09:35.092Z,100.00
2023-10-06T19:12:05.036Z,100.00
2023-10-06T19:14:32.149Z,100.00
2023-10-06T19:16:59.089Z,100.00
2023-10-06T19:19:28.625Z,100.00
2023-10-06T19:21:55.492Z,100.00
2023-10-06T19:24:22.178Z,100.00
2023-10-06T19:26:51.993Z,100.00
2023-10-06T19:29:20.678Z,100.00
2023-10-06T19:31:48.747Z,100.00
2023-10-06T19:34:16.811Z,100.00
2023-10-06T19:36:45.449Z,100.00
2023-10-06T19:39:15.600Z,100.00
2023-10-06T19:41:44.440Z,100.00
2023-10-06T19:44:11.365Z,100.00
2023-10-06T19:46:40.217Z,100.00
2023-10-06T19:49:07.022Z,100.00
2023-10-06T19:51:33.761Z,100.00
2023-10-06T19:54:00.544Z,100.00
2023-10-06T19:56:27.432Z,100.00
2023-10-06T19:58:55.276Z,100.00
2023-10-06T20:01:25.201Z,100.00
2023-10-06T20:03:52.481Z,100.00
2023-10-06T20:06:23.241Z,100.00
2023-10-06T20:08:50.040Z,100.00
2023-10-06T20:11:16.745Z,100.00
2023-10-06T20:13:43.366Z,100.00
2023-10-06T20:16:11.656Z,100.00
2023-10-06T20:18:40.937Z,100.00
2023-10-06T20:21:07.981Z,100.00
2023-10-06T20:23:36.628Z,100.00
2023-10-06T20:26:03.247Z,100.00
2023-10-06T20:28:29.930Z,100.00
2023-10-06T20:30:57.847Z,100.00
2023-10-06T20:33:24.719Z,100.00
2023-10-06T20:35:51.324Z,100.00
2023-10-06T20:38:18.960Z,100.00
2023-10-06T20:40:47.590Z,100.00
2023-10-06T20:43:14.304Z,100.00
2023-10-06T20:45:41.010Z,100.00
2023-10-06T20:48:10.527Z,100.00
2023-10-06T20:50:42.778Z,100.00
2023-10-06T20:53:10.426Z,100.00
2023-10-06T20:55:37.424Z,100.00
2023-10-06T20:58:05.229Z,100.00
2023-10-06T21:00:31.885Z,100.00
2023-10-06T21:02:58.922Z,100.00
2023-10-06T21:05:26.246Z,100.00
2023-10-06T21:07:54.232Z,100.00
2023-10-06T21:10:21.608Z,100.00
2023-10-06T21:12:48.462Z,100.00
2023-10-06T21:15:15.884Z,100.00
2023-10-06T21:17:43.746Z,100.00
2023-10-06T21:20:13.598Z,100.00
2023-10-06T21:22:41.316Z,100.00
2023-10-06T21:25:10.313Z,100.00
2023-10-06T21:27:40.965Z,100.00
2023-10-06T21:30:16.693Z,100.00
2023-10-06T21:32:46.141Z,100.00
2023-10-06T21:35:16.516Z,100.00
2023-10-06T21:37:43.601Z,100.00
2023-10-06T21:40:12.758Z,100.00
2023-10-06T21:42:39.591Z,100.00
2023-10-06T21:45:07.233Z,100.00
2023-10-06T21:47:34.345Z,100.00
2023-10-06T21:50:01.230Z,100.00
2023-10-06T21:52:30.159Z,100.00
2023-10-06T21:54:57.451Z,100.00
2023-10-06T21:57:26.448Z,100.00
2023-10-06T21:59:53.979Z,100.00
2023-10-06T22:02:20.778Z,100.00
2023-10-06T22:04:47.554Z,100.00
2023-10-06T22:07:15.904Z,100.00
2023-10-06T22:09:42.913Z,100.00
2023-10-06T22:12:10.523Z,100.00
2023-10-06T22:14:37.414Z,100.00
2023-10-06T22:17:06.208Z,100.00
2023-10-06T22:19:34.480Z,100.00
2023-10-06T22:22:02.079Z,100.00
2023-10-06T22:24:29.493Z,100.00
2023-10-06T22:26:59.558Z,100.00
2023-10-06T22:29:27.964Z,100.00
2023-10-06T22:31:55.163Z,100.00
2023-10-06T22:34:23.525Z,100.00
2023-10-06T22:36:52.743Z,100.00
2023-10-06T22:39:21.393Z,100.00
2023-10-06T22:41:48.196Z,100.00
2023-10-06T22:44:16.015Z,100.00
2023-10-06T22:46:42.815Z,100.00
2023-10-06T22:49:09.564Z,100.00
2023-10-06T22:51:38.008Z,100.00
2023-10-06T22:54:06.166Z,100.00
2023-10-06T22:56:33.040Z,100.00
2023-10-06T22:59:00.729Z,100.00
2023-10-06T23:01:27.535Z,100.00
2023-10-06T23:03:54.338Z,100.00
2023-10-06T23:06:21.036Z,100.00
2023-10-06T23:08:47.777Z,100.00
2023-10-06T23:11:16.214Z,100.00
2023-10-06T23:13:43.143Z,100.00
2023-10-06T23:16:10.964Z,100.00
2023-10-06T23:18:40.651Z,100.00
2023-10-06T23:21:08.409Z,100.00
2023-10-06T23:23:38.484Z,100.00
2023-10-06T23:26:09.853Z,100.00
2023-10-06T23:28:37.848Z,100.00
2023-10-06T23:31:05.017Z,100.00
2023-10-06T23:33:31.914Z,100.00
2023-10-06T23:35:59.565Z,100.00
2023-10-06T23:38:27.299Z,100.00
2023-10-06T23:40:54.206Z,100.00
2023-10-06T23:43:21.076Z,100.00
2023-10-06T23:45:48.350Z,100.00
2023-10-06T23:48:16.846Z,100.00
2023-10-06T23:50:53.660Z,100.00
2023-10-06T23:53:28.434Z,100.00
2023-10-06T23:56:02.327Z,100.00
2023-10-06T23:58:34.105Z,100.00
